Time;durP1;ratioP1;P1;durP2;ratioP2;P2;SDS_P1;SDS_P2;PMS_P1;PMS_P2;Temp;Humidity;BMP_temperature;BMP_pressure;BME280_temperature;BME280_humidity;BME280_pressure;Samples;Min_cycle;Max_cycle;Signal;HPM_P1;HPM_P2
2022/07/18 00:01:38;;;;;;;1.23;0.90;;;;;;;;;;6024994;29;20041;-79
2022/07/18 00:04:40;;;;;;;2.90;1.20;;;;;;;;;;6019213;29;20262;-80
2022/07/18 00:07:42;;;;;;;1.60;0.97;;;;;;;;;;6024309;29;20037;-78
2022/07/18 00:10:44;;;;;;;2.53;1.00;;;;;;;;;;6012836;29;20097;-80
2022/07/18 00:13:46;;;;;;;1.55;1.08;;;;;;;;;;6031230;29;20041;-80
2022/07/18 00:16:48;;;;;;;2.47;1.05;;;;;;;;;;6030397;29;20059;-79
2022/07/18 00:19:50;;;;;;;2.80;1.48;;;;;;;;;;6027853;29;20049;-79
2022/07/18 00:22:52;;;;;;;1.80;1.10;;;;;;;;;;6028319;29;20144;-79
2022/07/18 00:25:53;;;;;;;1.38;1.00;;;;;;;;;;6028209;29;20425;-79
2022/07/18 00:28:55;;;;;;;1.73;1.27;;;;;;;;;;6026070;29;20044;-80
2022/07/18 00:31:57;;;;;;;1.55;1.27;;;;;;;;;;6013080;29;20046;-80
2022/07/18 00:34:58;;;;;;;1.70;1.20;;;;;;;;;;6007091;29;20498;-79
2022/07/18 00:38:03;;;;;;;2.13;1.42;;;;;;;;;;6027994;29;20144;-80
2022/07/18 00:41:05;;;;;;;2.45;1.15;;;;;;;;;;6028997;29;20052;-79
2022/07/18 00:44:15;;;;;;;1.98;1.00;;;;;;;;;;6027231;29;20056;-79
2022/07/18 00:47:17;;;;;;;2.33;1.13;;;;;;;;;;6020764;29;20050;-78
2022/07/18 00:50:20;;;;;;;1.10;0.90;;;;;;;;;;6022605;29;20050;-79
2022/07/18 00:53:23;;;;;;;2.75;1.20;;;;;;;;;;6027573;29;20060;-80
2022/07/18 00:56:25;;;;;;;3.20;1.20;;;;;;;;;;6024235;29;20128;-79
2022/07/18 01:01:42;;;;;;;3.08;1.10;;;;;;;;;;6020101;29;20042;-79
2022/07/18 01:02:49;;;;;;;1.60;1.07;;;;;;;;;;6022412;29;20067;-80
2022/07/18 01:05:51;;;;;;;1.95;0.88;;;;;;;;;;6005690;29;20399;-80
2022/07/18 01:08:52;;;;;;;2.80;1.20;;;;;;;;;;6027684;29;20045;-79
2022/07/18 01:11:54;;;;;;;2.25;1.17;;;;;;;;;;6024620;29;20063;-80
2022/07/18 01:14:57;;;;;;;1.73;1.00;;;;;;;;;;6028254;29;20045;-81
2022/07/18 01:17:59;;;;;;;2.03;1.20;;;;;;;;;;6022299;29;20049;-79
2022/07/18 01:21:00;;;;;;;1.55;1.00;;;;;;;;;;6026068;29;20046;-80
2022/07/18 01:24:02;;;;;;;1.80;1.20;;;;;;;;;;6029726;29;20124;-79
2022/07/18 01:27:05;;;;;;;1.63;1.25;;;;;;;;;;6026159;29;20055;-79
2022/07/18 01:30:07;;;;;;;2.30;1.40;;;;;;;;;;6030539;29;20136;-79
2022/07/18 01:33:09;;;;;;;2.80;1.10;;;;;;;;;;6026443;29;20065;-78
2022/07/18 01:36:10;;;;;;;1.70;1.20;;;;;;;;;;6020235;29;20457;-79
2022/07/18 01:39:12;;;;;;;2.35;1.00;;;;;;;;;;6025930;29;20045;-81
2022/07/18 01:42:14;;;;;;;2.95;1.00;;;;;;;;;;6031701;29;20042;-81
2022/07/18 01:45:16;;;;;;;2.58;1.20;;;;;;;;;;6029702;29;20409;-81
2022/07/18 01:48:19;;;;;;;2.55;1.58;;;;;;;;;;6026441;29;20493;-79
2022/07/18 01:51:20;;;;;;;2.08;1.40;;;;;;;;;;6025141;29;20148;-80
2022/07/18 01:54:26;;;;;;;1.75;1.13;;;;;;;;;;6028884;29;20125;-81
2022/07/18 01:57:27;;;;;;;3.97;1.48;;;;;;;;;;6026921;29;20045;-81
2022/07/18 02:00:29;;;;;;;2.78;0.95;;;;;;;;;;6028833;29;20056;-80
2022/07/18 02:03:32;;;;;;;3.00;1.25;;;;;;;;;;6022990;29;20045;-79
2022/07/18 02:06:33;;;;;;;2.30;0.80;;;;;;;;;;6027036;29;20120;-80
2022/07/18 02:09:35;;;;;;;1.35;1.10;;;;;;;;;;6028862;29;20190;-81
2022/07/18 02:12:37;;;;;;;2.10;1.17;;;;;;;;;;6010166;29;20156;-80
2022/07/18 02:15:39;;;;;;;1.55;1.20;;;;;;;;;;6022289;29;20052;-81
2022/07/18 02:18:40;;;;;;;1.48;1.10;;;;;;;;;;6023023;29;20049;-80
2022/07/18 02:21:43;;;;;;;2.75;1.08;;;;;;;;;;6028753;29;20045;-80
2022/07/18 02:24:45;;;;;;;1.92;1.20;;;;;;;;;;6022881;29;20057;-80
2022/07/18 02:27:46;;;;;;;2.63;1.30;;;;;;;;;;6023483;29;20525;-81
2022/07/18 02:30:49;;;;;;;1.80;1.10;;;;;;;;;;6026640;29;20093;-80
2022/07/18 02:33:50;;;;;;;3.10;1.00;;;;;;;;;;6021711;29;20046;-80
2022/07/18 02:36:52;;;;;;;1.23;1.10;;;;;;;;;;6027395;29;20080;-80
2022/07/18 02:39:53;;;;;;;2.55;1.30;;;;;;;;;;6027350;29;20521;-81
2022/07/18 02:42:55;;;;;;;1.98;1.15;;;;;;;;;;6022131;29;20646;-81
2022/07/18 02:45:56;;;;;;;2.08;1.20;;;;;;;;;;6027537;29;20055;-80
2022/07/18 02:48:59;;;;;;;1.23;1.10;;;;;;;;;;6025059;29;20045;-80
2022/07/18 02:52:04;;;;;;;1.58;1.27;;;;;;;;;;6026903;29;20124;-80
2022/07/18 02:55:06;;;;;;;3.38;1.40;;;;;;;;;;6028335;29;20056;-81
2022/07/18 02:58:08;;;;;;;1.70;1.40;;;;;;;;;;6023380;29;20113;-81
2022/07/18 03:01:10;;;;;;;2.40;1.30;;;;;;;;;;6028098;29;20455;-80
2022/07/18 03:04:12;;;;;;;2.28;1.20;;;;;;;;;;6025939;29;20059;-81
2022/07/18 03:07:13;;;;;;;1.73;1.10;;;;;;;;;;6027538;29;20124;-82
2022/07/18 03:10:15;;;;;;;2.78;1.15;;;;;;;;;;6020203;29;20162;-80
2022/07/18 03:13:16;;;;;;;4.05;1.30;;;;;;;;;;6020760;29;20246;-80
2022/07/18 03:16:18;;;;;;;2.05;1.35;;;;;;;;;;6024927;29;20037;-81
2022/07/18 03:19:20;;;;;;;4.03;1.45;;;;;;;;;;6024025;29;20046;-80
2022/07/18 03:22:22;;;;;;;1.90;1.25;;;;;;;;;;6029046;29;20048;-81
2022/07/18 03:25:24;;;;;;;4.65;1.40;;;;;;;;;;6022586;29;20045;-81
2022/07/18 03:28:27;;;;;;;2.10;1.38;;;;;;;;;;6010052;29;20057;-80
2022/07/18 03:31:29;;;;;;;2.53;1.20;;;;;;;;;;6026778;29;20044;-82
2022/07/18 03:34:31;;;;;;;2.15;1.60;;;;;;;;;;6014026;29;20554;-81
2022/07/18 03:37:32;;;;;;;6.00;2.40;;;;;;;;;;6027180;29;20505;-81
2022/07/18 03:40:34;;;;;;;2.38;1.40;;;;;;;;;;6027417;29;20042;-79
2022/07/18 03:43:37;;;;;;;1.27;1.10;;;;;;;;;;6025346;29;20105;-82
2022/07/18 03:46:39;;;;;;;3.78;1.13;;;;;;;;;;6014850;29;20059;-83
2022/07/18 03:49:40;;;;;;;2.88;1.30;;;;;;;;;;6026188;29;20082;-81
2022/07/18 03:52:42;;;;;;;2.58;1.60;;;;;;;;;;6031233;29;20047;-81
2022/07/18 03:55:44;;;;;;;3.25;1.30;;;;;;;;;;6031696;29;20086;-83
2022/07/18 03:58:45;;;;;;;1.98;1.38;;;;;;;;;;6028717;29;20075;-84
2022/07/18 04:01:47;;;;;;;2.08;1.15;;;;;;;;;;6032387;29;20051;-80
2022/07/18 04:04:49;;;;;;;2.30;1.40;;;;;;;;;;6031644;29;20051;-82
2022/07/18 04:07:50;;;;;;;3.83;1.25;;;;;;;;;;6031439;29;20049;-82
2022/07/18 04:10:52;;;;;;;2.67;1.42;;;;;;;;;;6032284;29;20055;-80
2022/07/18 04:13:55;;;;;;;1.80;1.45;;;;;;;;;;6028205;29;20486;-82
2022/07/18 04:16:56;;;;;;;2.78;1.42;;;;;;;;;;6010837;29;20049;-82
2022/07/18 04:19:58;;;;;;;1.88;1.13;;;;;;;;;;6025652;29;20088;-80
2022/07/18 04:23:02;;;;;;;2.05;1.40;;;;;;;;;;6024607;29;20128;-81
2022/07/18 04:26:04;;;;;;;2.22;1.20;;;;;;;;;;6028432;29;20045;-81
2022/07/18 04:29:05;;;;;;;2.33;1.35;;;;;;;;;;6014073;29;20050;-80
2022/07/18 04:32:07;;;;;;;2.53;1.30;;;;;;;;;;6029810;29;20053;-78
2022/07/18 04:35:09;;;;;;;3.08;1.55;;;;;;;;;;6012635;29;20041;-80
2022/07/18 04:38:11;;;;;;;3.43;1.40;;;;;;;;;;6029464;29;20134;-81
2022/07/18 04:41:13;;;;;;;2.38;1.50;;;;;;;;;;6029457;29;20428;-81
2022/07/18 04:44:14;;;;;;;2.97;1.67;;;;;;;;;;6028713;29;20057;-80
2022/07/18 04:47:16;;;;;;;3.65;1.23;;;;;;;;;;6028328;29;20049;-79
2022/07/18 04:50:19;;;;;;;2.13;1.38;;;;;;;;;;6012340;29;20132;-80
2022/07/18 04:53:20;;;;;;;2.30;1.40;;;;;;;;;;6028743;29;20509;-80
2022/07/18 04:56:22;;;;;;;2.65;1.20;;;;;;;;;;6029657;29;20190;-79
2022/07/18 04:59:24;;;;;;;1.55;1.33;;;;;;;;;;6026657;29;20288;-80
2022/07/18 05:02:25;;;;;;;1.52;1.20;;;;;;;;;;6028813;29;20065;-79
2022/07/18 05:05:28;;;;;;;2.38;1.42;;;;;;;;;;6012291;29;20053;-79
2022/07/18 05:08:36;;;;;;;2.95;1.30;;;;;;;;;;6013139;29;20533;-80
2022/07/18 05:11:39;;;;;;;4.07;1.50;;;;;;;;;;6028755;29;20055;-80
2022/07/18 05:14:41;;;;;;;2.40;1.15;;;;;;;;;;6017544;29;20421;-79
2022/07/18 05:17:50;;;;;;;1.92;1.27;;;;;;;;;;6027592;29;20094;-79
2022/07/18 05:20:52;;;;;;;2.53;1.50;;;;;;;;;;6026898;29;20081;-79
2022/07/18 05:23:54;;;;;;;3.10;1.35;;;;;;;;;;6028678;29;20087;-79
2022/07/18 05:26:55;;;;;;;2.75;1.27;;;;;;;;;;6015045;29;20058;-80
2022/07/18 05:29:58;;;;;;;2.13;1.15;;;;;;;;;;6023298;29;20049;-79
2022/07/18 05:33:00;;;;;;;2.70;1.38;;;;;;;;;;6021895;29;20132;-79
2022/07/18 05:36:02;;;;;;;5.50;1.77;;;;;;;;;;6024398;29;20410;-79
2022/07/18 05:39:04;;;;;;;2.93;1.60;;;;;;;;;;6029042;29;20045;-80
2022/07/18 05:42:06;;;;;;;3.97;1.80;;;;;;;;;;6026636;29;20046;-80
2022/07/18 05:45:10;;;;;;;3.55;1.40;;;;;;;;;;6024967;29;20132;-80
2022/07/18 05:48:11;;;;;;;2.30;1.58;;;;;;;;;;6021533;29;20049;-79
2022/07/18 05:51:13;;;;;;;3.25;1.40;;;;;;;;;;6027413;29;20051;-79
2022/07/18 05:54:18;;;;;;;3.22;1.60;;;;;;;;;;6026724;29;20121;-79
2022/07/18 05:57:20;;;;;;;6.15;1.50;;;;;;;;;;6024876;29;20124;-80
2022/07/18 06:00:22;;;;;;;9.57;1.80;;;;;;;;;;6026710;29;20045;-80
2022/07/18 06:03:23;;;;;;;4.40;2.08;;;;;;;;;;6024716;29;20047;-80
2022/07/18 06:06:25;;;;;;;7.88;1.60;;;;;;;;;;6009198;29;20051;-82
2022/07/18 06:09:30;;;;;;;9.32;1.77;;;;;;;;;;6003369;29;20521;-79
2022/07/18 06:12:32;;;;;;;6.25;1.60;;;;;;;;;;6020267;29;20083;-81
2022/07/18 06:15:34;;;;;;;11.30;1.80;;;;;;;;;;6025557;29;20051;-79
2022/07/18 06:18:35;;;;;;;12.88;2.00;;;;;;;;;;6022047;29;20056;-82
2022/07/18 06:21:37;;;;;;;11.18;2.30;;;;;;;;;;6028915;29;20113;-81
2022/07/18 06:24:38;;;;;;;11.63;2.20;;;;;;;;;;6029861;29;20090;-82
2022/07/18 06:27:40;;;;;;;17.85;2.22;;;;;;;;;;6022758;29;20069;-81
2022/07/18 06:30:41;;;;;;;13.07;2.50;;;;;;;;;;6028943;29;20124;-82
2022/07/18 06:33:43;;;;;;;10.32;2.35;;;;;;;;;;6026034;29;20071;-81
2022/07/18 06:36:45;;;;;;;14.40;2.92;;;;;;;;;;6010742;29;20128;-80
2022/07/18 06:39:47;;;;;;;8.60;1.92;;;;;;;;;;6023504;29;20181;-79
2022/07/18 06:42:48;;;;;;;8.07;2.13;;;;;;;;;;6022085;29;20057;-76
2022/07/18 06:45:52;;;;;;;8.30;2.08;;;;;;;;;;6020690;29;20058;-76
2022/07/18 06:48:53;;;;;;;6.55;2.30;;;;;;;;;;6015778;29;20049;-75
2022/07/18 06:51:55;;;;;;;6.00;2.20;;;;;;;;;;6019419;29;20448;-75
2022/07/18 06:55:04;;;;;;;6.43;2.05;;;;;;;;;;6016609;29;20055;-75
2022/07/18 06:58:06;;;;;;;4.63;1.80;;;;;;;;;;6019516;29;20045;-75
2022/07/18 07:01:08;;;;;;;6.75;1.60;;;;;;;;;;6020443;29;20037;-75
2022/07/18 07:04:09;;;;;;;7.93;2.13;;;;;;;;;;6012936;29;20056;-76
2022/07/18 07:07:11;;;;;;;6.70;1.42;;;;;;;;;;6019947;29;20648;-75
2022/07/18 07:10:13;;;;;;;7.93;1.38;;;;;;;;;;6019785;29;20482;-75
2022/07/18 07:13:15;;;;;;;8.17;1.40;;;;;;;;;;6014288;29;20160;-75
2022/07/18 07:16:18;;;;;;;5.05;1.30;;;;;;;;;;6019496;29;20425;-75
2022/07/18 07:19:20;;;;;;;6.45;1.40;;;;;;;;;;6018975;29;20046;-75
2022/07/18 07:22:22;;;;;;;3.65;1.38;;;;;;;;;;6001572;29;20694;-75
2022/07/18 07:25:25;;;;;;;4.70;1.25;;;;;;;;;;6020316;29;20055;-75
2022/07/18 07:28:27;;;;;;;6.75;1.50;;;;;;;;;;6015343;29;20129;-75
2022/07/18 07:31:28;;;;;;;6.32;1.40;;;;;;;;;;6019263;29;20108;-75
2022/07/18 07:34:31;;;;;;;5.90;1.40;;;;;;;;;;6014520;29;20178;-75
2022/07/18 07:37:33;;;;;;;2.70;1.30;;;;;;;;;;6019607;29;20041;-75
2022/07/18 07:40:35;;;;;;;3.17;1.40;;;;;;;;;;6019958;29;20052;-75
2022/07/18 07:43:38;;;;;;;3.13;1.25;;;;;;;;;;6016746;29;20049;-75
2022/07/18 07:46:39;;;;;;;5.55;1.45;;;;;;;;;;6019568;29;20454;-75
2022/07/18 07:49:41;;;;;;;4.68;1.25;;;;;;;;;;6012133;29;20413;-75
2022/07/18 07:52:42;;;;;;;2.60;0.98;;;;;;;;;;6014221;29;20417;-76
2022/07/18 07:55:44;;;;;;;6.18;1.30;;;;;;;;;;6003460;29;20254;-74
2022/07/18 07:58:46;;;;;;;2.58;1.30;;;;;;;;;;6000783;29;20048;-75
2022/07/18 08:01:48;;;;;;;3.13;1.03;;;;;;;;;;6020371;29;20732;-75
2022/07/18 08:04:50;;;;;;;2.20;1.10;;;;;;;;;;6017859;29;20106;-74
2022/07/18 08:07:51;;;;;;;5.03;1.00;;;;;;;;;;6019773;29;20048;-74
2022/07/18 08:10:53;;;;;;;3.47;1.40;;;;;;;;;;6020038;29;20154;-75
2022/07/18 08:13:55;;;;;;;2.22;1.40;;;;;;;;;;6015049;29;20056;-75
2022/07/18 08:16:56;;;;;;;2.55;0.90;;;;;;;;;;6019657;29;20429;-75
2022/07/18 08:19:59;;;;;;;1.80;1.20;;;;;;;;;;6002624;29;20045;-75
2022/07/18 08:23:03;;;;;;;1.50;0.77;;;;;;;;;;6019817;29;20053;-74
2022/07/18 08:26:05;;;;;;;3.15;1.13;;;;;;;;;;6018874;29;20057;-75
2022/07/18 08:29:07;;;;;;;4.20;1.05;;;;;;;;;;6020078;29;20088;-75
2022/07/18 08:32:08;;;;;;;2.57;0.90;;;;;;;;;;6023586;29;20045;-75
2022/07/18 08:35:11;;;;;;;2.25;1.00;;;;;;;;;;6018415;29;20052;-75
2022/07/18 08:38:13;;;;;;;2.78;1.10;;;;;;;;;;6006983;29;20050;-75
2022/07/18 08:41:16;;;;;;;1.90;0.90;;;;;;;;;;6007071;29;20062;-79
2022/07/18 08:44:19;;;;;;;1.42;1.17;;;;;;;;;;6014130;29;20069;-78
2022/07/18 08:47:22;;;;;;;1.77;1.02;;;;;;;;;;6014289;29;20523;-79
2022/07/18 08:50:30;;;;;;;1.23;0.90;;;;;;;;;;6009301;29;20054;-76
2022/07/18 08:53:34;;;;;;;3.22;1.20;;;;;;;;;;6024293;29;20056;-76
2022/07/18 08:56:36;;;;;;;1.27;0.88;;;;;;;;;;6008530;29;20128;-78
2022/07/18 08:59:39;;;;;;;2.13;1.00;;;;;;;;;;6002109;29;20132;-78
2022/07/18 09:02:41;;;;;;;2.80;1.00;;;;;;;;;;6021151;29;20128;-77
2022/07/18 09:05:42;;;;;;;3.15;1.00;;;;;;;;;;6024834;29;20064;-79
2022/07/18 09:08:59;;;;;;;3.15;1.15;;;;;;;;;;6026731;29;20049;-78
2022/07/18 09:12:03;;;;;;;2.75;0.98;;;;;;;;;;6024060;29;20161;-79
2022/07/18 09:15:07;;;;;;;2.20;0.77;;;;;;;;;;6007575;29;20048;-80
2022/07/18 09:18:09;;;;;;;1.98;1.00;;;;;;;;;;6010242;29;20183;-79
2022/07/18 09:21:36;;;;;;;3.00;0.97;;;;;;;;;;6019272;29;20049;-78
2022/07/18 09:25:00;;;;;;;1.02;0.90;;;;;;;;;;6026342;29;20053;-78
2022/07/18 09:28:09;;;;;;;3.90;1.00;;;;;;;;;;6027882;29;20561;-81
2022/07/18 09:31:21;;;;;;;2.13;1.00;;;;;;;;;;6029616;29;20117;-82
2022/07/18 09:34:41;;;;;;;2.53;1.00;;;;;;;;;;6024971;29;20056;-81
2022/07/18 09:37:59;;;;;;;2.28;1.00;;;;;;;;;;6023056;29;20045;-79
2022/07/18 09:41:01;;;;;;;2.90;0.88;;;;;;;;;;6027270;29;20136;-80
2022/07/18 09:44:14;;;;;;;1.42;0.98;;;;;;;;;;6004700;29;20635;-80
2022/07/18 09:47:16;;;;;;;1.00;0.90;;;;;;;;;;6027796;29;20132;-80
2022/07/18 09:50:27;;;;;;;1.52;0.88;;;;;;;;;;6023088;29;20105;-80
2022/07/18 09:53:41;;;;;;;1.85;0.88;;;;;;;;;;6027669;29;20453;-79
2022/07/18 09:56:42;;;;;;;1.02;0.80;;;;;;;;;;6026015;29;20052;-78
2022/07/18 09:59:44;;;;;;;1.35;0.90;;;;;;;;;;6011198;29;20105;-78
2022/07/18 10:02:50;;;;;;;3.15;0.98;;;;;;;;;;6026217;29;20053;-79
2022/07/18 10:05:54;;;;;;;1.42;0.90;;;;;;;;;;6020824;29;20050;-79
2022/07/18 10:08:56;;;;;;;9.35;0.95;;;;;;;;;;6023904;29;20053;-78
2022/07/18 10:11:58;;;;;;;1.70;0.80;;;;;;;;;;6009035;29;20053;-79
2022/07/18 10:15:04;;;;;;;0.82;0.82;;;;;;;;;;6027566;29;20049;-78
2022/07/18 10:18:08;;;;;;;3.13;0.75;;;;;;;;;;6026045;29;20142;-78
2022/07/18 10:21:15;;;;;;;1.15;0.75;;;;;;;;;;6029254;29;20056;-79
2022/07/18 10:24:18;;;;;;;2.15;1.00;;;;;;;;;;6026245;29;20053;-79
2022/07/18 10:27:21;;;;;;;2.88;0.82;;;;;;;;;;6019789;29;20500;-79
2022/07/18 10:30:53;;;;;;;1.58;0.60;;;;;;;;;;6023884;29;20105;-78
2022/07/18 10:34:07;;;;;;;1.15;0.85;;;;;;;;;;6013860;29;20053;-78
2022/07/18 10:37:10;;;;;;;1.27;0.90;;;;;;;;;;6024016;29;20461;-78
2022/07/18 10:40:29;;;;;;;2.58;0.90;;;;;;;;;;6020013;29;20157;-79
2022/07/18 10:43:33;;;;;;;1.50;0.95;;;;;;;;;;6022286;29;20054;-76
2022/07/18 10:47:03;;;;;;;2.90;1.00;;;;;;;;;;6023979;29;20383;-78
2022/07/18 10:50:05;;;;;;;2.15;0.88;;;;;;;;;;6012333;29;20552;-78
2022/07/18 10:53:07;;;;;;;0.82;0.75;;;;;;;;;;6023358;29;20520;-77
2022/07/18 10:56:12;;;;;;;2.55;0.90;;;;;;;;;;6006304;29;20053;-78
2022/07/18 10:59:14;;;;;;;1.33;1.02;;;;;;;;;;6020354;29;20648;-80
2022/07/18 11:02:16;;;;;;;1.27;0.80;;;;;;;;;;6022397;29;20056;-79
2022/07/18 11:05:27;;;;;;;2.10;0.80;;;;;;;;;;6022521;29;20053;-80
2022/07/18 11:08:31;;;;;;;1.88;1.10;;;;;;;;;;6022731;29;20041;-77
2022/07/18 11:11:33;;;;;;;1.10;0.98;;;;;;;;;;6023204;29;20079;-78
2022/07/18 11:15:13;;;;;;;2.28;1.00;;;;;;;;;;6016016;29;20041;-78
2022/07/18 11:18:14;;;;;;;2.08;0.93;;;;;;;;;;6018624;29;20166;-77
2022/07/18 11:21:27;;;;;;;1.65;0.80;;;;;;;;;;6024130;29;20049;-78
2022/07/18 11:24:36;;;;;;;1.55;1.05;;;;;;;;;;6008711;29;20048;-78
2022/07/18 11:27:39;;;;;;;2.28;1.00;;;;;;;;;;6023953;29;20520;-83
2022/07/18 11:30:42;;;;;;;1.67;0.90;;;;;;;;;;6027643;29;20045;-83
2022/07/18 11:33:48;;;;;;;1.70;1.13;;;;;;;;;;6021182;29;20079;-82
2022/07/18 11:36:50;;;;;;;2.42;1.00;;;;;;;;;;6023613;29;20141;-83
2022/07/18 11:39:52;;;;;;;0.80;0.80;;;;;;;;;;6027871;29;20132;-83
2022/07/18 11:42:56;;;;;;;2.13;0.88;;;;;;;;;;6009300;29;20177;-83
2022/07/18 11:46:02;;;;;;;1.67;1.00;;;;;;;;;;6025238;29;20067;-83
2022/07/18 11:49:06;;;;;;;5.55;1.30;;;;;;;;;;6006447;29;20078;-81
2022/07/18 11:52:07;;;;;;;1.52;0.98;;;;;;;;;;6024057;29;20186;-81
2022/07/18 11:55:11;;;;;;;1.92;0.88;;;;;;;;;;6025011;29;20201;-82
2022/07/18 11:58:14;;;;;;;1.77;1.00;;;;;;;;;;6021668;29;20113;-81
2022/07/18 12:01:16;;;;;;;3.10;1.20;;;;;;;;;;6006071;29;20116;-80
2022/07/18 12:04:21;;;;;;;3.65;1.20;;;;;;;;;;6024896;29;20061;-81
2022/07/18 12:07:24;;;;;;;2.08;1.00;;;;;;;;;;6026899;29;20532;-82
2022/07/18 12:10:26;;;;;;;2.38;0.93;;;;;;;;;;6012230;29;20046;-80
2022/07/18 12:13:39;;;;;;;2.22;0.90;;;;;;;;;;6026707;29;20046;-79
2022/07/18 12:16:56;;;;;;;5.20;0.98;;;;;;;;;;6028831;29;20083;-79
2022/07/18 12:20:10;;;;;;;3.35;1.15;;;;;;;;;;6024684;29;20516;-81
2022/07/18 12:23:12;;;;;;;2.33;1.00;;;;;;;;;;6026645;29;20514;-81
2022/07/18 12:26:31;;;;;;;1.52;1.05;;;;;;;;;;6011764;29;20116;-80
2022/07/18 12:29:55;;;;;;;1.88;1.08;;;;;;;;;;6014638;29;20063;-80
2022/07/18 12:33:01;;;;;;;1.42;1.02;;;;;;;;;;6029473;29;20117;-82
2022/07/18 12:36:02;;;;;;;2.47;1.00;;;;;;;;;;6029676;29;20132;-80
2022/07/18 12:39:04;;;;;;;1.08;0.90;;;;;;;;;;6014690;29;20113;-80
2022/07/18 12:42:06;;;;;;;;;;;;;;;;;;6008645;29;20177;-81
2022/07/18 12:45:08;;;;;;;;;;;;;;;;;;6015258;29;20048;-81
2022/07/18 12:48:12;;;;;;;4.07;0.95;;;;;;;;;;6014611;29;20042;-81
2022/07/18 12:51:13;;;;;;;2.33;1.00;;;;;;;;;;6017288;29;20049;-80
2022/07/18 12:54:15;;;;;;;;;;;;;;;;;;6031116;29;20415;-81
2022/07/18 12:57:18;;;;;;;1.90;0.95;;;;;;;;;;6029891;29;20080;-82
2022/07/18 13:00:19;;;;;;;1.05;1.00;;;;;;;;;;6032880;29;20481;-81
2022/07/18 13:03:21;;;;;;;1.20;1.10;;;;;;;;;;6030043;29;20124;-82
2022/07/18 13:06:23;;;;;;;1.42;1.23;;;;;;;;;;6031548;29;20067;-81
2022/07/18 13:09:24;;;;;;;1.88;1.00;;;;;;;;;;6015474;29;20053;-82
2022/07/18 13:12:26;;;;;;;1.42;1.20;;;;;;;;;;6030645;29;20142;-81
2022/07/18 13:15:28;;;;;;;1.30;1.20;;;;;;;;;;6009228;29;20653;-82
2022/07/18 13:18:29;;;;;;;1.38;1.17;;;;;;;;;;6026690;29;20541;-81
2022/07/18 13:21:31;;;;;;;3.28;1.00;;;;;;;;;;6031430;29;20052;-82
2022/07/18 13:24:33;;;;;;;2.72;1.10;;;;;;;;;;6012459;29;20041;-82
2022/07/18 13:27:37;;;;;;;1.40;1.30;;;;;;;;;;6023625;29;20203;-81
2022/07/18 13:30:39;;;;;;;3.33;1.33;;;;;;;;;;6019793;29;20049;-81
2022/07/18 13:33:40;;;;;;;1.48;1.17;;;;;;;;;;6020494;29;20052;-80
2022/07/18 13:36:42;;;;;;;1.98;1.27;;;;;;;;;;6007856;29;20046;-81
2022/07/18 13:39:43;;;;;;;2.95;1.23;;;;;;;;;;6020934;29;20047;-81
2022/07/18 13:42:45;;;;;;;2.60;1.25;;;;;;;;;;6024507;29;20529;-82
2022/07/18 13:45:46;;;;;;;2.67;1.30;;;;;;;;;;6027193;29;20060;-82
2022/07/18 13:48:49;;;;;;;1.90;1.20;;;;;;;;;;6026304;29;20113;-81
2022/07/18 13:51:51;;;;;;;2.90;1.05;;;;;;;;;;6010193;29;20684;-82
2022/07/18 13:54:54;;;;;;;2.95;1.70;;;;;;;;;;6025510;29;20148;-83
2022/07/18 13:57:56;;;;;;;2.25;1.30;;;;;;;;;;6018725;29;20049;-80
2022/07/18 14:00:59;;;;;;;1.67;1.27;;;;;;;;;;6023812;29;20049;-79
2022/07/18 14:04:00;;;;;;;1.73;1.30;;;;;;;;;;6021357;29;20049;-80
2022/07/18 14:07:02;;;;;;;2.35;1.38;;;;;;;;;;6022690;29;20054;-79
2022/07/18 14:10:05;;;;;;;1.40;1.10;;;;;;;;;;6023718;29;20406;-82
2022/07/18 14:13:09;;;;;;;3.45;1.27;;;;;;;;;;6010757;29;20045;-80
2022/07/18 14:16:12;;;;;;;1.88;1.42;;;;;;;;;;5996597;29;20081;-80
2022/07/18 14:19:19;;;;;;;2.25;1.50;;;;;;;;;;5989518;29;20057;-80
2022/07/18 14:22:21;;;;;;;2.30;1.30;;;;;;;;;;6006508;29;20068;-82
2022/07/18 14:25:23;;;;;;;2.58;1.10;;;;;;;;;;6022694;29;20105;-83
2022/07/18 14:28:24;;;;;;;2.40;1.60;;;;;;;;;;6019993;29;20057;-80
2022/07/18 14:31:26;;;;;;;2.72;1.23;;;;;;;;;;6022578;29;20061;-79
2022/07/18 14:34:27;;;;;;;1.73;1.33;;;;;;;;;;6021169;29;20046;-79
2022/07/18 14:37:29;;;;;;;2.63;1.23;;;;;;;;;;6021287;29;20394;-79
2022/07/18 14:40:31;;;;;;;3.00;1.42;;;;;;;;;;6004907;29;20049;-81
2022/07/18 14:43:32;;;;;;;1.95;1.50;;;;;;;;;;6019939;29;20689;-80
2022/07/18 14:46:34;;;;;;;1.50;1.23;;;;;;;;;;6021083;29;20053;-79
2022/07/18 14:49:35;;;;;;;2.92;1.40;;;;;;;;;;6017972;29;20053;-81
2022/07/18 14:52:38;;;;;;;4.20;1.75;;;;;;;;;;6020028;29;20205;-81
2022/07/18 14:55:40;;;;;;;2.78;1.40;;;;;;;;;;6025638;29;20069;-81
2022/07/18 14:58:42;;;;;;;4.88;1.33;;;;;;;;;;6018216;29;20045;-81
2022/07/18 15:01:44;;;;;;;5.13;1.58;;;;;;;;;;6022488;29;20405;-81
2022/07/18 15:04:46;;;;;;;3.67;1.40;;;;;;;;;;6019554;29;20046;-83
2022/07/18 15:07:48;;;;;;;2.10;1.30;;;;;;;;;;6022865;29;21110;-83
2022/07/18 15:10:49;;;;;;;3.08;1.38;;;;;;;;;;6023284;29;20665;-84
2022/07/18 15:13:51;;;;;;;2.30;1.30;;;;;;;;;;6007254;29;20507;-81
2022/07/18 15:16:53;;;;;;;5.72;1.58;;;;;;;;;;6027273;29;20699;-83
2022/07/18 15:19:55;;;;;;;1.80;1.33;;;;;;;;;;6028133;29;20049;-82
2022/07/18 15:22:57;;;;;;;1.45;1.05;;;;;;;;;;6029801;29;20538;-81
2022/07/18 15:25:58;;;;;;;3.63;1.55;;;;;;;;;;6026904;29;20045;-82
2022/07/18 15:29:00;;;;;;;1.40;1.10;;;;;;;;;;6027605;29;20057;-78
2022/07/18 15:32:07;;;;;;;3.13;1.25;;;;;;;;;;6028532;29;20121;-80
2022/07/18 15:35:09;;;;;;;5.13;1.60;;;;;;;;;;6023353;29;20144;-80
2022/07/18 15:38:10;;;;;;;4.22;1.30;;;;;;;;;;6026727;29;20046;-81
2022/07/18 15:41:12;;;;;;;2.20;1.20;;;;;;;;;;6029695;29;20536;-81
2022/07/18 15:44:14;;;;;;;2.70;1.58;;;;;;;;;;6016531;29;20185;-82
2022/07/18 15:47:15;;;;;;;1.40;1.30;;;;;;;;;;6015048;29;20524;-81
2022/07/18 15:50:17;;;;;;;2.10;1.40;;;;;;;;;;6026011;29;20164;-81
2022/07/18 15:53:19;;;;;;;2.28;1.30;;;;;;;;;;6031673;29;20140;-80
2022/07/18 15:56:20;;;;;;;2.45;1.50;;;;;;;;;;6032377;29;20101;-80
2022/07/18 15:59:22;;;;;;;3.97;1.58;;;;;;;;;;6028763;29;20102;-81
2022/07/18 16:02:24;;;;;;;2.40;1.52;;;;;;;;;;6030944;29;20516;-82
2022/07/18 16:05:25;;;;;;;4.70;1.35;;;;;;;;;;6028202;29;20137;-81
2022/07/18 16:08:29;;;;;;;3.45;1.60;;;;;;;;;;6029065;29;20232;-81
2022/07/18 16:11:32;;;;;;;3.30;1.40;;;;;;;;;;6025036;29;20057;-84
2022/07/18 16:14:35;;;;;;;3.15;1.58;;;;;;;;;;6017455;29;20429;-82
2022/07/18 16:17:36;;;;;;;3.65;1.42;;;;;;;;;;6032330;29;20046;-82
2022/07/18 16:20:39;;;;;;;5.68;1.50;;;;;;;;;;6035264;29;20141;-82
2022/07/18 16:23:42;;;;;;;2.25;1.10;;;;;;;;;;6021725;29;20061;-83
2022/07/18 16:26:43;;;;;;;4.35;1.50;;;;;;;;;;6010815;29;20514;-81
2022/07/18 16:29:45;;;;;;;2.45;1.33;;;;;;;;;;6016505;29;20053;-81
2022/07/18 16:32:55;;;;;;;2.67;1.10;;;;;;;;;;6034674;29;20125;-82
2022/07/18 16:35:57;;;;;;;2.67;1.27;;;;;;;;;;6015193;29;20145;-82
2022/07/18 16:38:58;;;;;;;1.50;1.30;;;;;;;;;;6035860;29;20400;-83
2022/07/18 16:42:00;;;;;;;3.20;1.60;;;;;;;;;;6026264;29;20045;-81
2022/07/18 16:45:08;;;;;;;3.80;1.45;;;;;;;;;;6031492;29;20050;-82
2022/07/18 16:48:10;;;;;;;3.10;1.40;;;;;;;;;;6031615;29;20245;-83
2022/07/18 16:51:12;;;;;;;2.35;1.30;;;;;;;;;;6030404;29;20170;-83
2022/07/18 16:54:14;;;;;;;3.72;1.45;;;;;;;;;;6033820;29;20073;-83
2022/07/18 16:57:15;;;;;;;9.32;1.50;;;;;;;;;;6033710;29;20045;-83
2022/07/18 17:00:17;;;;;;;1.98;1.30;;;;;;;;;;6032197;29;20064;-82
2022/07/18 17:03:19;;;;;;;2.38;1.35;;;;;;;;;;6030728;29;20054;-80
2022/07/18 17:06:22;;;;;;;2.72;1.13;;;;;;;;;;6032849;29;20061;-81
2022/07/18 17:09:24;;;;;;;4.22;1.40;;;;;;;;;;6018103;29;20083;-82
2022/07/18 17:12:26;;;;;;;1.17;1.05;;;;;;;;;;6027741;29;20497;-81
2022/07/18 17:15:28;;;;;;;1.98;1.40;;;;;;;;;;6000567;29;20046;-83
2022/07/18 17:18:30;;;;;;;3.63;1.48;;;;;;;;;;6019198;29;20195;-80
2022/07/18 17:21:32;;;;;;;2.47;1.30;;;;;;;;;;6006412;29;20070;-82
2022/07/18 17:24:35;;;;;;;3.80;1.42;;;;;;;;;;6000611;29;20049;-82
2022/07/18 17:27:36;;;;;;;2.60;1.45;;;;;;;;;;6010554;29;20046;-81
2022/07/18 17:30:38;;;;;;;;;;;;;;;;;;6014195;29;20495;-82
2022/07/18 17:33:40;;;;;;;1.88;1.10;;;;;;;;;;5991891;29;19924;-78
2022/07/18 17:36:45;;;;;;;1.30;1.20;;;;;;;;;;6015464;29;20391;-81
2022/07/18 17:39:50;;;;;;;4.80;1.38;;;;;;;;;;5976948;29;20080;-82
2022/07/18 17:42:53;;;;;;;3.58;1.33;;;;;;;;;;6023910;29;20065;-85
2022/07/18 17:45:57;;;;;;;1.85;1.33;;;;;;;;;;6017667;29;20086;-84
2022/07/18 17:48:59;;;;;;;3.10;1.35;;;;;;;;;;6028052;29;20048;-81
2022/07/18 17:52:02;;;;;;;5.25;1.60;;;;;;;;;;6029810;29;20470;-82
2022/07/18 17:55:05;;;;;;;3.28;1.42;;;;;;;;;;6030857;29;20053;-83
2022/07/18 17:58:07;;;;;;;3.25;1.30;;;;;;;;;;6025003;29;20038;-84
2022/07/18 18:01:14;;;;;;;2.30;1.30;;;;;;;;;;6029281;29;20071;-83
2022/07/18 18:04:17;;;;;;;4.10;1.50;;;;;;;;;;6008403;29;20049;-80
2022/07/18 18:07:21;;;;;;;2.10;1.40;;;;;;;;;;6013265;29;20061;-81
2022/07/18 18:10:24;;;;;;;3.78;1.63;;;;;;;;;;6008563;29;20074;-81
2022/07/18 18:13:26;;;;;;;4.85;1.50;;;;;;;;;;6021488;29;20069;-79
2022/07/18 18:16:30;;;;;;;;;;;;;;;;;;6023170;29;20065;-79
2022/07/18 18:19:36;;;;;;;4.05;1.40;;;;;;;;;;6017903;29;20003;-79